createdAt,value
2018-02-15T00:07:14.360Z,24.1
2018-02-15T00:10:11.323Z,24.1
2018-02-15T00:13:08.577Z,24.1
2018-02-15T00:16:05.339Z,24.2
2018-02-15T00:19:02.845Z,24.2
2018-02-15T00:21:59.351Z,24.2
2018-02-15T00:24:56.956Z,24.2
2018-02-15T00:27:53.340Z,24.3
2018-02-15T00:33:47.383Z,24.4
2018-02-15T00:39:41.428Z,24.5
2018-02-15T00:42:38.351Z,24.5
2018-02-15T00:45:35.416Z,24.6
2018-02-15T00:48:32.364Z,24.6
2018-02-15T00:54:26.969Z,24.8
2018-02-15T01:03:17.828Z,25
2018-02-15T01:06:14.352Z,25.1
2018-02-15T01:09:11.555Z,25.2
2018-02-15T01:12:08.409Z,25.3
2018-02-15T01:15:05.959Z,25.4
2018-02-15T01:20:59.462Z,25.5
2018-02-15T01:23:56.403Z,25.6
2018-02-15T01:29:50.494Z,25.7
2018-02-15T01:32:47.414Z,25.8
2018-02-15T01:38:41.522Z,25.9
2018-02-15T01:47:32.617Z,26.2
2018-02-15T01:50:29.467Z,26.4
2018-02-15T01:53:26.489Z,26.4
2018-02-15T01:59:20.548Z,26.6
2018-02-15T02:02:17.496Z,26.5
2018-02-15T02:05:15.098Z,26.5
2018-02-15T02:08:11.466Z,26.6
2018-02-15T02:14:05.642Z,26.4
2018-02-15T02:20:00.051Z,26.4
2018-02-15T02:22:56.472Z,26.4
2018-02-15T02:25:53.521Z,26.5
2018-02-15T02:31:47.552Z,26.8
2018-02-15T02:34:44.539Z,26.8
2018-02-15T02:40:38.661Z,27.1
2018-02-15T02:43:35.932Z,27.2
2018-02-15T02:46:32.990Z,27.4
2018-02-15T02:49:29.946Z,27.6
2018-02-15T02:52:26.969Z,27.7
2018-02-15T02:55:23.572Z,27.8
2018-02-15T02:58:20.628Z,28
2018-02-15T03:01:17.602Z,28.1
2018-02-15T03:13:05.714Z,28.5
2018-02-15T03:16:02.598Z,28.6
2018-02-15T03:19:00.143Z,28.7
2018-02-15T03:21:57.082Z,28.8
2018-02-15T03:24:54.061Z,28.9
2018-02-15T03:27:50.611Z,29
2018-02-15T03:33:44.689Z,29.2
2018-02-15T03:36:41.675Z,29.2
2018-02-15T03:39:38.680Z,29.4
2018-02-15T03:42:36.041Z,29.4
2018-02-15T03:45:33.180Z,29.5
2018-02-15T03:48:30.047Z,29.6
2018-02-15T03:54:23.644Z,29.8
2018-02-15T04:00:17.686Z,30
2018-02-15T04:03:14.643Z,30
2018-02-15T04:15:02.869Z,30.4
2018-02-15T04:17:59.680Z,30.4
2018-02-15T04:20:56.730Z,30.5
2018-02-15T04:23:53.705Z,30.6
2018-02-15T04:29:47.739Z,30.4
2018-02-15T04:32:44.707Z,30.6
2018-02-15T04:35:41.805Z,30.7
2018-02-15T04:38:38.692Z,30.8
2018-02-15T04:41:35.825Z,30.9
2018-02-15T04:47:29.885Z,31
2018-02-15T04:50:26.696Z,31.1
2018-02-15T04:56:20.766Z,31.2
2018-02-15T05:43:33.251Z,32
2018-02-15T05:52:23.890Z,32.1
2018-02-15T06:18:57.329Z,32.2
2018-02-15T06:27:47.943Z,32.2
2018-02-15T06:33:42.020Z,32.2
2018-02-15T06:36:38.844Z,32.2
2018-02-15T07:03:12.019Z,32.2
2018-02-15T07:17:57.080Z,32.2
2018-02-15T07:20:53.982Z,32.2
2018-02-15T07:35:39.035Z,32.2
2018-02-15T07:38:35.975Z,32.2
2018-02-15T07:41:33.192Z,32.3
2018-02-15T07:47:27.094Z,32.3
2018-02-15T07:50:23.997Z,32.2
2018-02-15T07:53:21.470Z,32.3
2018-02-15T08:05:09.624Z,32.3
2018-02-15T08:08:06.131Z,32.3
2018-02-15T08:11:03.055Z,32.3
2018-02-15T08:37:36.588Z,32.3
2018-02-15T08:52:21.636Z,32.2
2018-02-15T08:58:15.538Z,32.2
2018-02-15T09:04:09.175Z,32.2
2018-02-15T09:07:06.151Z,32.1
2018-02-15T09:21:51.619Z,31.8
2018-02-15T09:24:48.198Z,31.8
2018-02-15T09:36:36.233Z,31.6
2018-02-15T09:54:18.235Z,31.3
2018-02-15T10:09:03.254Z,31
2018-02-15T10:14:57.331Z,30.8
2018-02-15T10:17:54.213Z,30.8
2018-02-15T10:26:45.322Z,30.6
2018-02-15T10:35:36.507Z,30.4
2018-02-15T10:41:30.296Z,30.2
2018-02-15T10:47:24.328Z,30.1
2018-02-15T10:50:21.279Z,30
2018-02-15T10:59:12.439Z,29.8
2018-02-15T11:05:06.367Z,29.7
2018-02-15T11:11:00.593Z,29.6
2018-02-15T11:25:45.349Z,29.4
2018-02-15T11:31:39.385Z,29.3
2018-02-15T11:34:36.331Z,29.3
2018-02-15T11:40:30.465Z,29.3
2018-02-15T11:49:21.845Z,29.2
2018-02-15T11:55:15.413Z,29.1
2018-02-15T12:04:06.524Z,29
2018-02-15T12:07:03.381Z,29
2018-02-15T12:15:54.958Z,28.9
2018-02-15T12:21:48.446Z,28.9
2018-02-15T12:27:42.592Z,28.8
2018-02-15T12:33:36.468Z,28.7
2018-02-15T12:39:30.580Z,28.7
2018-02-15T12:42:27.969Z,28.7
2018-02-15T12:45:24.524Z,28.6
2018-02-15T12:48:21.853Z,28.6
2018-02-15T12:57:12.509Z,28.5
2018-02-15T13:03:06.529Z,28.4
2018-02-15T13:06:03.473Z,28.4
2018-02-15T13:14:54.656Z,28.4
2018-02-15T13:20:48.958Z,28.4
2018-02-15T13:26:42.573Z,28.4
2018-02-15T13:35:33.567Z,28.3
2018-02-15T13:38:30.555Z,28.2
2018-02-15T13:41:27.785Z,28.1
2018-02-15T13:59:09.678Z,27.6
2018-02-15T14:02:06.585Z,27.6
2018-02-15T14:08:00.740Z,27.5
2018-02-15T14:10:57.603Z,27.4
2018-02-15T14:13:54.805Z,27.4
2018-02-15T14:37:30.693Z,27
2018-02-15T14:43:25.243Z,26.9
2018-02-15T14:52:15.710Z,26.8
2018-02-15T14:58:09.729Z,26.8
2018-02-15T15:01:06.628Z,26.7
2018-02-15T15:04:03.663Z,26.7
2018-02-15T15:07:00.673Z,26.6
2018-02-15T15:09:57.741Z,26.6
2018-02-15T15:15:52.180Z,26.6
2018-02-15T15:21:46.106Z,26.5
2018-02-15T15:24:42.660Z,26.5
2018-02-15T15:30:36.707Z,26.4
2018-02-15T15:36:30.716Z,26.4
2018-02-15T15:42:25.184Z,26.3
2018-02-15T15:48:18.791Z,26.3
2018-02-15T15:57:09.746Z,26.3
2018-02-15T16:03:03.773Z,26.2
2018-02-15T16:20:45.899Z,26.1
2018-02-15T16:35:31.238Z,26
2018-02-15T16:44:21.902Z,25.9
2018-02-15T16:53:12.881Z,25.9
2018-02-15T16:59:06.861Z,25.9
2018-02-15T17:02:03.842Z,25.9
2018-02-15T17:05:01.288Z,25.9
2018-02-15T17:10:54.896Z,25.8
2018-02-15T17:16:48.905Z,25.8
2018-02-15T17:25:39.899Z,25.8
2018-02-15T17:31:33.896Z,25.8
2018-02-15T17:34:30.900Z,25.7
2018-02-15T17:37:27.899Z,25.7
2018-02-15T17:40:24.941Z,25.7
2018-02-15T18:01:03.986Z,25.6
2018-02-15T18:06:57.953Z,25.5
2018-02-15T18:15:49.162Z,25.4
2018-02-15T18:21:44.221Z,25.4
2018-02-15T18:33:30.948Z,25.4
2018-02-15T18:36:27.930Z,25.3
2018-02-15T18:39:24.998Z,25.3
2018-02-15T18:54:10.508Z,25.2
2018-02-15T19:00:03.988Z,25.2
2018-02-15T19:17:46.083Z,25.1
2018-02-15T19:20:43.007Z,25.1
2018-02-15T19:26:37.073Z,25.1
2018-02-15T19:29:34.007Z,25.1
2018-02-15T19:32:31.071Z,25
2018-02-15T19:47:16.133Z,24.9
2018-02-15T19:56:07.124Z,24.9
2018-02-15T19:59:04.057Z,24.9
2018-02-15T20:02:01.490Z,24.8
2018-02-15T20:37:25.638Z,24.6
2018-02-15T20:43:19.659Z,24.6
2018-02-15T20:49:13.373Z,24.6
2018-02-15T20:52:10.569Z,24.6
2018-02-15T20:55:07.191Z,24.5
2018-02-15T21:03:58.598Z,24.5
2018-02-15T21:06:55.153Z,24.5
2018-02-15T21:09:52.603Z,24.5
2018-02-15T21:15:46.256Z,24.4
2018-02-15T21:18:43.235Z,24.4
2018-02-15T21:24:37.199Z,24.4
2018-02-15T21:30:31.199Z,24.4
2018-02-15T21:33:28.608Z,24.3
2018-02-15T21:36:25.234Z,24.3
2018-02-15T21:39:22.608Z,24.3
2018-02-15T21:48:13.349Z,24.2
2018-02-15T21:51:10.640Z,24.2
2018-02-15T22:00:01.258Z,24.1
2018-02-15T22:08:52.356Z,24.1
2018-02-15T22:11:49.346Z,24.1
2018-02-15T22:14:46.701Z,24.1
2018-02-15T22:20:40.403Z,24
2018-02-15T22:23:37.239Z,24
2018-02-15T22:32:28.270Z,24
2018-02-15T22:35:25.305Z,24
2018-02-15T22:41:19.846Z,24
2018-02-15T22:44:16.278Z,24
2018-02-15T22:47:13.346Z,23.9
2018-02-15T22:53:07.312Z,23.9
2018-02-15T22:56:04.284Z,23.9
2018-02-15T23:01:58.808Z,23.8
2018-02-15T23:04:55.843Z,23.8
2018-02-15T23:16:43.467Z,23.7
2018-02-15T23:19:40.523Z,23.7
2018-02-15T23:25:35.069Z,23.7
2018-02-15T23:28:32.183Z,23.7
2018-02-15T23:34:26.031Z,23.7
2018-02-15T23:37:22.334Z,23.7
2018-02-15T23:40:19.803Z,23.7
2018-02-15T23:46:13.517Z,23.8
2018-02-15T23:49:10.314Z,23.8
2018-02-15T23:58:01.436Z,23.8
